Date,TemperatureHighF,TemperatureAvgF,TemperatureLowF,DewpointHighF,DewpointAvgF,DewpointLowF,HumidityHigh,HumidityAvg,HumidityLow,PressureMaxIn,PressureMinIn,WindSpeedMaxMPH,WindSpeedAvgMPH,GustSpeedMaxMPH,PrecipitationSumIn
2013-1-1,50,49,45,49,43,30,98,82,49,30.15,29.98,9,3,12,0.43
2013-1-2,51,48,45,49,46,42,99,90,79,30.19,29.93,10,3,13,0.09
2013-1-3,45,40,29,42,37,29,97,90,80,30.33,30.13,9,3,11,0.00
2013-1-4,52,40,23,32,24,18,98,56,26,30.40,30.27,14,3,15,0.01
2013-1-5,47,37,23,33,24,19,90,62,39,30.44,30.27,9,1,9,0.00
2013-1-6,55,46,36,43,38,30,88,76,63,30.28,30.07,13,2,13,0.03
2013-1-7,51,38,28,32,29,26,92,71,42,30.46,30.24,9,2,13,0.00
2013-1-8,52,39,24,42,33,22,95,81,61,30.52,30.41,5,0,6,0.00
2013-1-9,62,53,41,54,48,40,95,84,70,30.49,30.40,6,1,9,0.00
2013-1-10,67,56,45,53,49,43,98,79,59,30.52,30.38,8,2,10,0.01
2013-1-11,53,48,47,49,48,47,98,97,81,30.39,30.20,12,4,13,0.18
2013-1-12,73,60,49,66,58,48,99,92,76,30.20,30.11,10,2,11,0.00
2013-1-13,71,63,57,63,60,56,98,90,73,30.15,30.06,13,3,17,0.00
2013-1-14,67,64,61,65,62,59,98,96,91,30.14,30.06,7,2,15,0.25
2013-1-15,61,49,43,60,49,41,98,97,95,30.18,30.09,13,7,17,0.16
2013-1-16,51,46,42,50,46,41,99,97,95,30.09,30.01,9,3,12,0.33
2013-1-17,51,46,36,51,46,35,99,98,96,30.23,29.81,27,9,36,2.08
2013-1-18,50,39,29,35,29,25,99,72,39,30.55,30.23,7,2,9,0.00
2013-1-19,54,38,24,33,27,23,97,69,32,30.54,30.21,10,2,14,0.00
2013-1-20,64,48,33,36,30,25,83,52,30,30.21,30.06,16,4,22,0.00
2013-1-21,61,44,27,35,26,16,94,56,27,30.12,29.96,25,5,27,0.00
2013-1-22,42,35,28,15,7,-6,48,33,14,30.30,30.06,22,7,31,0.00
2013-1-23,47,35,22,29,17,2,71,49,33,30.40,30.11,12,3,16,0.00
2013-1-24,47,40,26,33,18,5,74,44,21,30.53,30.03,20,8,27,0.00
2013-1-25,28,26,20,26,19,8,93,76,46,30.55,30.18,10,2,11,0.00
2013-1-26,48,34,24,37,29,23,97,85,55,30.41,30.16,9,1,9,0.01
2013-1-27,44,37,28,32,28,25,94,73,55,30.61,30.41,11,3,11,0.00
2013-1-28,53,44,37,47,37,30,92,79,67,30.52,30.29,15,3,18,0.00
2013-1-29,70,58,43,61,53,42,97,84,69,30.29,30.03,19,4,19,0.00
2013-1-30,71,64,49,63,60,45,98,87,72,30.04,29.47,33,9,34,1.25
2013-1-31,50,43,37,45,27,19,88,55,32,30.07,29.56,28,10,28,0.00